sensor_id;sensor_type;location;lat;lon;timestamp;temperature;humidity
42803;DHT22;28447;48.682;9.022;2023-05-16T04:01:25;10.60;99.90
42803;DHT22;28447;48.682;9.022;2023-05-16T04:03:50;10.70;99.90
42803;DHT22;28447;48.682;9.022;2023-05-16T04:06:16;10.70;99.90
42803;DHT22;28447;48.682;9.022;2023-05-16T04:08:42;10.70;99.90
42803;DHT22;28447;48.682;9.022;2023-05-16T04:11:09;10.60;99.90
42803;DHT22;28447;48.682;9.022;2023-05-16T04:13:34;10.60;99.90
42803;DHT22;28447;48.682;9.022;2023-05-16T04:16:00;10.60;99.90
42803;DHT22;28447;48.682;9.022;2023-05-16T04:18:26;10.70;99.90
42803;DHT22;28447;48.682;9.022;2023-05-16T04:20:51;10.70;99.90
42803;DHT22;28447;48.682;9.022;2023-05-16T04:23:17;10.70;99.90
42803;DHT22;28447;48.682;9.022;2023-05-16T04:25:43;10.70;99.90
42803;DHT22;28447;48.682;9.022;2023-05-16T04:28:08;10.70;99.90
42803;DHT22;28447;48.682;9.022;2023-05-16T04:30:34;10.70;99.90
42803;DHT22;28447;48.682;9.022;2023-05-16T04:33:00;10.80;99.90
42803;DHT22;28447;48.682;9.022;2023-05-16T04:35:28;10.80;99.90
42803;DHT22;28447;48.682;9.022;2023-05-16T04:37:53;10.70;99.90
42803;DHT22;28447;48.682;9.022;2023-05-16T04:40:19;10.70;99.90
42803;DHT22;28447;48.682;9.022;2023-05-16T04:42:44;10.80;99.90
42803;DHT22;28447;48.682;9.022;2023-05-16T04:45:11;10.90;99.90
42803;DHT22;28447;48.682;9.022;2023-05-16T04:47:38;10.90;99.90
42803;DHT22;28447;48.682;9.022;2023-05-16T04:50:05;10.90;99.90
42803;DHT22;28447;48.682;9.022;2023-05-16T04:52:33;10.90;99.90
42803;DHT22;28447;48.682;9.022;2023-05-16T04:54:58;11.00;99.90
42803;DHT22;28447;48.682;9.022;2023-05-16T04:57:25;11.00;99.90
42803;DHT22;28447;48.682;9.022;2023-05-16T04:59:52;11.00;99.90
42803;DHT22;28447;48.682;9.022;2023-05-16T05:02:17;11.10;99.90
42803;DHT22;28447;48.682;9.022;2023-05-16T05:04:43;11.10;99.90
42803;DHT22;28447;48.682;9.022;2023-05-16T05:07:09;11.00;99.90
42803;DHT22;28447;48.682;9.022;2023-05-16T05:09:34;11.10;99.90
42803;DHT22;28447;48.682;9.022;2023-05-16T05:12:00;11.00;99.90
42803;DHT22;28447;48.682;9.022;2023-05-16T05:14:26;11.00;99.90
42803;DHT22;28447;48.682;9.022;2023-05-16T05:16:51;11.10;99.90
42803;DHT22;28447;48.682;9.022;2023-05-16T05:19:17;11.10;99.90
42803;DHT22;28447;48.682;9.022;2023-05-16T05:21:43;11.00;99.90
42803;DHT22;28447;48.682;9.022;2023-05-16T05:24:08;11.00;99.90
42803;DHT22;28447;48.682;9.022;2023-05-16T05:26:34;11.10;99.90
42803;DHT22;28447;48.682;9.022;2023-05-16T05:29:00;11.00;99.90
42803;DHT22;28447;48.682;9.022;2023-05-16T05:31:26;11.10;99.90
42803;DHT22;28447;48.682;9.022;2023-05-16T05:33:52;11.10;99.90
42803;DHT22;28447;48.682;9.022;2023-05-16T05:36:17;11.00;99.90
42803;DHT22;28447;48.682;9.022;2023-05-16T05:38:43;11.20;99.90
42803;DHT22;28447;48.682;9.022;2023-05-16T05:41:08;11.20;99.90
42803;DHT22;28447;48.682;9.022;2023-05-16T05:43:36;11.30;99.90
42803;DHT22;28447;48.682;9.022;2023-05-16T05:46:02;11.30;99.90
42803;DHT22;28447;48.682;9.022;2023-05-16T05:48:27;11.20;99.90
42803;DHT22;28447;48.682;9.022;2023-05-16T05:50:54;11.20;99.90
42803;DHT22;28447;48.682;9.022;2023-05-16T05:53:20;11.20;99.90
42803;DHT22;28447;48.682;9.022;2023-05-16T05:55:46;11.10;99.90
42803;DHT22;28447;48.682;9.022;2023-05-16T05:58:12;11.20;99.90
42803;DHT22;28447;48.682;9.022;2023-05-16T06:00:37;11.20;99.90
42803;DHT22;28447;48.682;9.022;2023-05-16T06:03:03;11.20;99.90
42803;DHT22;28447;48.682;9.022;2023-05-16T06:05:29;11.20;99.90
42803;DHT22;28447;48.682;9.022;2023-05-16T06:07:55;11.30;99.90
42803;DHT22;28447;48.682;9.022;2023-05-16T06:10:20;11.30;99.90
42803;DHT22;28447;48.682;9.022;2023-05-16T06:12:46;11.20;99.90
42803;DHT22;28447;48.682;9.022;2023-05-16T06:15:12;11.20;99.90
42803;DHT22;28447;48.682;9.022;2023-05-16T06:17:37;11.30;99.90
42803;DHT22;28447;48.682;9.022;2023-05-16T06:20:03;11.30;99.90
42803;DHT22;28447;48.682;9.022;2023-05-16T06:22:29;11.40;99.90
42803;DHT22;28447;48.682;9.022;2023-05-16T06:24:55;11.40;99.90
42803;DHT22;28447;48.682;9.022;2023-05-16T06:27:21;11.40;99.90
42803;DHT22;28447;48.682;9.022;2023-05-16T06:29:47;11.40;99.90
42803;DHT22;28447;48.682;9.022;2023-05-16T06:32:12;11.40;99.90
42803;DHT22;28447;48.682;9.022;2023-05-16T06:34:38;11.60;99.90
42803;DHT22;28447;48.682;9.022;2023-05-16T06:37:03;12.30;99.90
42803;DHT22;28447;48.682;9.022;2023-05-16T06:39:29;13.00;99.90
42803;DHT22;28447;48.682;9.022;2023-05-16T06:41:55;12.20;99.90
42803;DHT22;28447;48.682;9.022;2023-05-16T06:44:22;12.00;99.90
42803;DHT22;28447;48.682;9.022;2023-05-16T06:46:48;11.80;99.90
42803;DHT22;28447;48.682;9.022;2023-05-16T06:49:13;11.70;99.90
42803;DHT22;28447;48.682;9.022;2023-05-16T06:51:39;11.80;99.90
42803;DHT22;28447;48.682;9.022;2023-05-16T06:54:05;11.50;99.90
42803;DHT22;28447;48.682;9.022;2023-05-16T06:56:31;11.60;99.90
42803;DHT22;28447;48.682;9.022;2023-05-16T06:58:56;11.60;99.90
42803;DHT22;28447;48.682;9.022;2023-05-16T07:01:22;11.60;99.90
42803;DHT22;28447;48.682;9.022;2023-05-16T07:03:47;11.40;99.90
42803;DHT22;28447;48.682;9.022;2023-05-16T07:06:13;11.40;99.90
42803;DHT22;28447;48.682;9.022;2023-05-16T07:08:39;11.60;99.90
42803;DHT22;28447;48.682;9.022;2023-05-16T07:11:05;11.50;99.90
42803;DHT22;28447;48.682;9.022;2023-05-16T07:13:30;11.30;99.90
42803;DHT22;28447;48.682;9.022;2023-05-16T07:15:56;11.40;99.90
42803;DHT22;28447;48.682;9.022;2023-05-16T07:18:22;11.30;99.90
42803;DHT22;28447;48.682;9.022;2023-05-16T07:20:47;11.30;99.90
42803;DHT22;28447;48.682;9.022;2023-05-16T07:23:13;11.20;99.90
42803;DHT22;28447;48.682;9.022;2023-05-16T07:25:38;11.20;99.90
42803;DHT22;28447;48.682;9.022;2023-05-16T07:28:04;11.30;99.90
42803;DHT22;28447;48.682;9.022;2023-05-16T07:30:30;11.40;99.90
42803;DHT22;28447;48.682;9.022;2023-05-16T07:32:56;11.20;99.90
42803;DHT22;28447;48.682;9.022;2023-05-16T07:35:22;11.20;99.90
42803;DHT22;28447;48.682;9.022;2023-05-16T07:37:48;11.20;99.90
42803;DHT22;28447;48.682;9.022;2023-05-16T07:40:13;11.30;99.90
42803;DHT22;28447;48.682;9.022;2023-05-16T07:42:39;11.30;99.90
42803;DHT22;28447;48.682;9.022;2023-05-16T07:45:05;11.20;99.90
42803;DHT22;28447;48.682;9.022;2023-05-16T07:47:32;11.50;99.90
42803;DHT22;28447;48.682;9.022;2023-05-16T07:49:57;11.60;99.90
42803;DHT22;28447;48.682;9.022;2023-05-16T07:52:23;11.60;99.90
42803;DHT22;28447;48.682;9.022;2023-05-16T07:54:48;11.80;99.90
42803;DHT22;28447;48.682;9.022;2023-05-16T07:57:14;11.80;99.90
42803;DHT22;28447;48.682;9.022;2023-05-16T07:59:41;11.80;99.90
42803;DHT22;28447;48.682;9.022;2023-05-16T08:02:07;11.60;99.90
42803;DHT22;28447;48.682;9.022;2023-05-16T08:04:32;11.40;99.90
42803;DHT22;28447;48.682;9.022;2023-05-16T08:06:58;11.40;99.90
42803;DHT22;28447;48.682;9.022;2023-05-16T08:09:23;11.40;99.90
42803;DHT22;28447;48.682;9.022;2023-05-16T08:11:49;11.50;99.90
42803;DHT22;28447;48.682;9.022;2023-05-16T08:14:15;11.80;99.90
42803;DHT22;28447;48.682;9.022;2023-05-16T08:16:41;11.90;99.90
42803;DHT22;28447;48.682;9.022;2023-05-16T08:19:06;11.90;99.90
42803;DHT22;28447;48.682;9.022;2023-05-16T08:21:32;11.70;99.90
42803;DHT22;28447;48.682;9.022;2023-05-16T08:23:57;11.90;99.90
42803;DHT22;28447;48.682;9.022;2023-05-16T08:26:23;11.80;99.90
42803;DHT22;28447;48.682;9.022;2023-05-16T08:28:49;11.70;99.90
42803;DHT22;28447;48.682;9.022;2023-05-16T08:31:15;11.70;99.90
42803;DHT22;28447;48.682;9.022;2023-05-16T08:33:41;11.60;99.90
42803;DHT22;28447;48.682;9.022;2023-05-16T08:36:08;11.30;99.90
42803;DHT22;28447;48.682;9.022;2023-05-16T08:38:34;11.20;99.90
42803;DHT22;28447;48.682;9.022;2023-05-16T08:41:00;11.20;99.90
42803;DHT22;28447;48.682;9.022;2023-05-16T08:43:25;11.10;99.90
42803;DHT22;28447;48.682;9.022;2023-05-16T08:45:51;11.10;99.90
42803;DHT22;28447;48.682;9.022;2023-05-16T08:48:22;11.10;99.90
42803;DHT22;28447;48.682;9.022;2023-05-16T08:50:47;11.10;99.90
42803;DHT22;28447;48.682;9.022;2023-05-16T08:53:15;11.30;99.90
42803;DHT22;28447;48.682;9.022;2023-05-16T08:55:43;11.30;99.90
42803;DHT22;28447;48.682;9.022;2023-05-16T08:58:10;11.40;99.90
42803;DHT22;28447;48.682;9.022;2023-05-16T09:00:37;11.40;99.90
42803;DHT22;28447;48.682;9.022;2023-05-16T09:03:03;11.50;99.90
42803;DHT22;28447;48.682;9.022;2023-05-16T09:05:30;11.50;99.90
42803;DHT22;28447;48.682;9.022;2023-05-16T09:07:56;11.70;99.90
42803;DHT22;28447;48.682;9.022;2023-05-16T09:10:21;11.50;99.90
42803;DHT22;28447;48.682;9.022;2023-05-16T09:12:47;11.50;99.90
42803;DHT22;28447;48.682;9.022;2023-05-16T09:15:13;11.50;99.90
42803;DHT22;28447;48.682;9.022;2023-05-16T09:17:41;11.30;99.90
42803;DHT22;28447;48.682;9.022;2023-05-16T09:20:15;11.40;99.90
42803;DHT22;28447;48.682;9.022;2023-05-16T09:22:58;11.30;99.90
42803;DHT22;28447;48.682;9.022;2023-05-16T09:25:26;11.40;99.90
42803;DHT22;28447;48.682;9.022;2023-05-16T09:27:53;11.60;99.90
42803;DHT22;28447;48.682;9.022;2023-05-16T09:30:23;11.70;99.90
42803;DHT22;28447;48.682;9.022;2023-05-16T09:32:52;11.90;99.90
42803;DHT22;28447;48.682;9.022;2023-05-16T09:35:19;12.00;99.90
42803;DHT22;28447;48.682;9.022;2023-05-16T09:37:49;12.00;99.90
42803;DHT22;28447;48.682;9.022;2023-05-16T09:40:15;12.00;99.90
42803;DHT22;28447;48.682;9.022;2023-05-16T09:42:41;12.00;99.90
42803;DHT22;28447;48.682;9.022;2023-05-16T09:45:12;12.00;99.90
42803;DHT22;28447;48.682;9.022;2023-05-16T09:47:38;12.40;99.90
42803;DHT22;28447;48.682;9.022;2023-05-16T09:50:13;12.60;99.90
42803;DHT22;28447;48.682;9.022;2023-05-16T09:52:40;12.50;99.90
42803;DHT22;28447;48.682;9.022;2023-05-16T09:55:07;12.50;99.90
42803;DHT22;28447;48.682;9.022;2023-05-16T09:57:36;12.40;99.90
42803;DHT22;28447;48.682;9.022;2023-05-16T10:00:09;12.50;99.90
42803;DHT22;28447;48.682;9.022;2023-05-16T10:02:36;12.20;99.90
42803;DHT22;28447;48.682;9.022;2023-05-16T10:05:02;12.40;99.90
42803;DHT22;28447;48.682;9.022;2023-05-16T10:07:30;12.80;99.90
42803;DHT22;28447;48.682;9.022;2023-05-16T10:09:58;12.80;99.90
42803;DHT22;28447;48.682;9.022;2023-05-16T10:12:29;13.00;99.90
42803;DHT22;28447;48.682;9.022;2023-05-16T10:14:56;13.00;99.90
42803;DHT22;28447;48.682;9.022;2023-05-16T10:17:24;12.80;99.90
42803;DHT22;28447;48.682;9.022;2023-05-16T10:19:50;12.60;99.90
42803;DHT22;28447;48.682;9.022;2023-05-16T10:22:16;12.50;99.90
42803;DHT22;28447;48.682;9.022;2023-05-16T10:24:54;12.60;99.90
42803;DHT22;28447;48.682;9.022;2023-05-16T10:27:23;12.70;99.90
42803;DHT22;28447;48.682;9.022;2023-05-16T10:29:49;12.60;99.90
42803;DHT22;28447;48.682;9.022;2023-05-16T10:32:15;12.40;99.90
42803;DHT22;28447;48.682;9.022;2023-05-16T10:34:42;12.20;99.90
42803;DHT22;28447;48.682;9.022;2023-05-16T10:37:10;12.00;99.90
42803;DHT22;28447;48.682;9.022;2023-05-16T10:39:37;11.80;99.90
42803;DHT22;28447;48.682;9.022;2023-05-16T10:42:04;11.80;99.90
42803;DHT22;28447;48.682;9.022;2023-05-16T10:44:32;11.70;99.90
42803;DHT22;28447;48.682;9.022;2023-05-16T10:46:59;11.70;99.90
42803;DHT22;28447;48.682;9.022;2023-05-16T10:49:26;11.90;99.90
42803;DHT22;28447;48.682;9.022;2023-05-16T10:52:03;11.90;99.90
42803;DHT22;28447;48.682;9.022;2023-05-16T10:54:40;12.00;99.90
42803;DHT22;28447;48.682;9.022;2023-05-16T10:57:07;12.10;99.90
42803;DHT22;28447;48.682;9.022;2023-05-16T10:59:41;12.20;99.90
42803;DHT22;28447;48.682;9.022;2023-05-16T11:02:22;12.40;99.90
42803;DHT22;28447;48.682;9.022;2023-05-16T11:04:49;12.30;99.90
42803;DHT22;28447;48.682;9.022;2023-05-16T11:07:19;12.20;99.90
42803;DHT22;28447;48.682;9.022;2023-05-16T11:09:52;12.20;99.90
42803;DHT22;28447;48.682;9.022;2023-05-16T11:12:45;12.10;99.90
42803;DHT22;28447;48.682;9.022;2023-05-16T11:15:21;11.90;99.90
42803;DHT22;28447;48.682;9.022;2023-05-16T11:17:47;11.90;99.90
42803;DHT22;28447;48.682;9.022;2023-05-16T11:20:30;12.00;99.90
42803;DHT22;28447;48.682;9.022;2023-05-16T11:25:44;11.90;99.90
42803;DHT22;28447;48.682;9.022;2023-05-16T11:28:12;11.90;99.90
42803;DHT22;28447;48.682;9.022;2023-05-16T11:30:56;11.60;99.90
42803;DHT22;28447;48.682;9.022;2023-05-16T11:33:23;11.60;99.90
42803;DHT22;28447;48.682;9.022;2023-05-16T11:36:08;11.60;99.90
42803;DHT22;28447;48.682;9.022;2023-05-16T11:38:34;11.60;99.90
42803;DHT22;28447;48.682;9.022;2023-05-16T11:41:07;11.50;99.90
42803;DHT22;28447;48.682;9.022;2023-05-16T11:43:43;11.30;99.90
42803;DHT22;28447;48.682;9.022;2023-05-16T11:46:15;11.30;99.90
42803;DHT22;28447;48.682;9.022;2023-05-16T11:48:41;11.30;99.90
42803;DHT22;28447;48.682;9.022;2023-05-16T11:51:08;11.40;99.90
42803;DHT22;28447;48.682;9.022;2023-05-16T11:53:35;11.30;99.90
42803;DHT22;28447;48.682;9.022;2023-05-16T11:56:01;11.30;99.90
42803;DHT22;28447;48.682;9.022;2023-05-16T11:58:27;11.40;99.90
42803;DHT22;28447;48.682;9.022;2023-05-16T12:00:53;11.40;99.90
42803;DHT22;28447;48.682;9.022;2023-05-16T12:03:20;11.40;99.90
42803;DHT22;28447;48.682;9.022;2023-05-16T12:05:49;11.30;99.90
42803;DHT22;28447;48.682;9.022;2023-05-16T12:08:16;11.50;99.90
42803;DHT22;28447;48.682;9.022;2023-05-16T12:10:42;11.50;99.90
42803;DHT22;28447;48.682;9.022;2023-05-16T12:13:07;11.70;99.90
42803;DHT22;28447;48.682;9.022;2023-05-16T12:15:33;11.70;99.90
42803;DHT22;28447;48.682;9.022;2023-05-16T12:17:59;11.70;99.90
42803;DHT22;28447;48.682;9.022;2023-05-16T12:20:25;11.90;99.90
42803;DHT22;28447;48.682;9.022;2023-05-16T12:22:51;12.10;99.90
42803;DHT22;28447;48.682;9.022;2023-05-16T12:25:27;12.00;99.90
42803;DHT22;28447;48.682;9.022;2023-05-16T12:27:58;12.20;99.90
42803;DHT22;28447;48.682;9.022;2023-05-16T12:30:25;12.40;99.90
42803;DHT22;28447;48.682;9.022;2023-05-16T12:32:56;12.50;99.90
42803;DHT22;28447;48.682;9.022;2023-05-16T12:35:23;12.70;99.90
42803;DHT22;28447;48.682;9.022;2023-05-16T12:37:49;12.60;99.90
42803;DHT22;28447;48.682;9.022;2023-05-16T12:40:16;12.40;99.90
42803;DHT22;28447;48.682;9.022;2023-05-16T12:42:52;12.50;99.90
42803;DHT22;28447;48.682;9.022;2023-05-16T12:45:17;12.30;99.90
42803;DHT22;28447;48.682;9.022;2023-05-16T12:47:43;12.40;99.90
42803;DHT22;28447;48.682;9.022;2023-05-16T12:50:11;12.10;99.90
42803;DHT22;28447;48.682;9.022;2023-05-16T12:52:52;11.90;99.90
42803;DHT22;28447;48.682;9.022;2023-05-16T12:55:19;12.00;99.90
42803;DHT22;28447;48.682;9.022;2023-05-16T12:57:46;11.80;99.90
42803;DHT22;28447;48.682;9.022;2023-05-16T13:00:16;11.60;99.90
42803;DHT22;28447;48.682;9.022;2023-05-16T13:02:48;11.60;99.90
42803;DHT22;28447;48.682;9.022;2023-05-16T13:05:14;11.50;99.90
42803;DHT22;28447;48.682;9.022;2023-05-16T13:07:40;11.00;99.90
42803;DHT22;28447;48.682;9.022;2023-05-16T13:10:07;10.90;99.90
42803;DHT22;28447;48.682;9.022;2023-05-16T13:12:37;10.80;99.90
42803;DHT22;28447;48.682;9.022;2023-05-16T13:15:05;10.70;99.90
42803;DHT22;28447;48.682;9.022;2023-05-16T13:17:32;10.70;99.90
42803;DHT22;28447;48.682;9.022;2023-05-16T13:19:58;10.80;99.90
42803;DHT22;28447;48.682;9.022;2023-05-16T13:22:24;10.60;99.90
42803;DHT22;28447;48.682;9.022;2023-05-16T13:24:50;10.70;99.90
42803;DHT22;28447;48.682;9.022;2023-05-16T13:27:16;10.60;99.90
42803;DHT22;28447;48.682;9.022;2023-05-16T13:29:44;10.70;99.90
42803;DHT22;28447;48.682;9.022;2023-05-16T13:32:10;10.90;99.90
42803;DHT22;28447;48.682;9.022;2023-05-16T13:34:35;10.90;99.90
42803;DHT22;28447;48.682;9.022;2023-05-16T13:37:01;11.00;99.90
42803;DHT22;28447;48.682;9.022;2023-05-16T13:39:26;10.90;99.90
42803;DHT22;28447;48.682;9.022;2023-05-16T13:41:52;10.80;99.90
42803;DHT22;28447;48.682;9.022;2023-05-16T13:44:18;10.60;99.90
42803;DHT22;28447;48.682;9.022;2023-05-16T13:46:44;10.70;99.90
42803;DHT22;28447;48.682;9.022;2023-05-16T13:49:10;10.70;99.90
42803;DHT22;28447;48.682;9.022;2023-05-16T13:51:36;10.70;99.90
42803;DHT22;28447;48.682;9.022;2023-05-16T13:54:01;10.70;99.90
42803;DHT22;28447;48.682;9.022;2023-05-16T13:56:27;10.80;99.90
42803;DHT22;28447;48.682;9.022;2023-05-16T13:58:52;10.80;99.90
42803;DHT22;28447;48.682;9.022;2023-05-16T14:01:18;10.70;99.90
42803;DHT22;28447;48.682;9.022;2023-05-16T14:03:44;10.70;99.90
42803;DHT22;28447;48.682;9.022;2023-05-16T14:06:09;10.80;99.90
42803;DHT22;28447;48.682;9.022;2023-05-16T14:08:35;10.90;99.90
42803;DHT22;28447;48.682;9.022;2023-05-16T14:11:01;11.10;99.90
42803;DHT22;28447;48.682;9.022;2023-05-16T14:13:26;11.00;99.90
42803;DHT22;28447;48.682;9.022;2023-05-16T14:15:52;10.90;99.90
42803;DHT22;28447;48.682;9.022;2023-05-16T14:18:18;11.10;99.90
42803;DHT22;28447;48.682;9.022;2023-05-16T14:20:43;10.90;99.90
42803;DHT22;28447;48.682;9.022;2023-05-16T14:23:09;11.10;99.90
42803;DHT22;28447;48.682;9.022;2023-05-16T14:25:35;10.90;99.90
42803;DHT22;28447;48.682;9.022;2023-05-16T14:28:01;11.00;99.90
42803;DHT22;28447;48.682;9.022;2023-05-16T14:30:26;11.00;99.90
42803;DHT22;28447;48.682;9.022;2023-05-16T14:32:52;11.20;99.90
42803;DHT22;28447;48.682;9.022;2023-05-16T14:35:19;11.10;99.90
42803;DHT22;28447;48.682;9.022;2023-05-16T14:37:45;11.20;99.90
42803;DHT22;28447;48.682;9.022;2023-05-16T14:40:10;11.60;99.90
42803;DHT22;28447;48.682;9.022;2023-05-16T14:42:36;11.60;99.90
42803;DHT22;28447;48.682;9.022;2023-05-16T14:45:02;11.70;99.90
42803;DHT22;28447;48.682;9.022;2023-05-16T14:47:28;11.90;99.90
42803;DHT22;28447;48.682;9.022;2023-05-16T14:49:55;11.70;99.90
42803;DHT22;28447;48.682;9.022;2023-05-16T14:52:21;11.70;99.90
42803;DHT22;28447;48.682;9.022;2023-05-16T14:54:46;11.80;99.90
42803;DHT22;28447;48.682;9.022;2023-05-16T14:57:12;11.90;99.90
42803;DHT22;28447;48.682;9.022;2023-05-16T14:59:37;12.00;99.90
42803;DHT22;28447;48.682;9.022;2023-05-16T15:02:03;12.00;99.90
42803;DHT22;28447;48.682;9.022;2023-05-16T15:04:29;12.30;99.90
42803;DHT22;28447;48.682;9.022;2023-05-16T15:06:55;12.30;99.90
42803;DHT22;28447;48.682;9.022;2023-05-16T15:09:20;12.20;99.90
42803;DHT22;28447;48.682;9.022;2023-05-16T15:11:46;12.30;99.90
42803;DHT22;28447;48.682;9.022;2023-05-16T15:14:12;12.20;99.90
42803;DHT22;28447;48.682;9.022;2023-05-16T15:16:37;12.10;99.90
42803;DHT22;28447;48.682;9.022;2023-05-16T15:19:03;11.90;99.90
42803;DHT22;28447;48.682;9.022;2023-05-16T15:21:29;11.90;99.90
42803;DHT22;28447;48.682;9.022;2023-05-16T15:23:57;12.10;99.90
42803;DHT22;28447;48.682;9.022;2023-05-16T15:26:22;12.00;99.90
42803;DHT22;28447;48.682;9.022;2023-05-16T15:28:49;12.00;99.90
42803;DHT22;28447;48.682;9.022;2023-05-16T15:31:14;12.30;99.90
42803;DHT22;28447;48.682;9.022;2023-05-16T15:33:40;12.40;99.90
42803;DHT22;28447;48.682;9.022;2023-05-16T15:36:06;12.60;99.90
42803;DHT22;28447;48.682;9.022;2023-05-16T15:38:31;12.70;99.90
42803;DHT22;28447;48.682;9.022;2023-05-16T15:40:57;12.60;99.90
42803;DHT22;28447;48.682;9.022;2023-05-16T15:43:23;12.90;99.90
42803;DHT22;28447;48.682;9.022;2023-05-16T15:45:48;13.20;99.90
42803;DHT22;28447;48.682;9.022;2023-05-16T15:48:14;13.20;99.90
42803;DHT22;28447;48.682;9.022;2023-05-16T15:50:40;12.80;99.90
42803;DHT22;28447;48.682;9.022;2023-05-16T15:53:06;12.50;99.90
42803;DHT22;28447;48.682;9.022;2023-05-16T15:55:31;12.50;99.90
42803;DHT22;28447;48.682;9.022;2023-05-16T15:57:57;12.40;99.90
42803;DHT22;28447;48.682;9.022;2023-05-16T16:00:24;12.40;99.90
42803;DHT22;28447;48.682;9.022;2023-05-16T16:02:50;12.30;99.90
42803;DHT22;28447;48.682;9.022;2023-05-16T16:05:16;12.40;99.90
42803;DHT22;28447;48.682;9.022;2023-05-16T16:07:41;12.40;99.90
42803;DHT22;28447;48.682;9.022;2023-05-16T16:10:10;12.30;99.90
42803;DHT22;28447;48.682;9.022;2023-05-16T16:12:36;12.60;99.90
42803;DHT22;28447;48.682;9.022;2023-05-16T16:15:03;12.50;99.90
42803;DHT22;28447;48.682;9.022;2023-05-16T16:17:31;12.90;99.90
42803;DHT22;28447;48.682;9.022;2023-05-16T16:19:57;13.50;99.90
42803;DHT22;28447;48.682;9.022;2023-05-16T16:22:22;13.10;99.90
42803;DHT22;28447;48.682;9.022;2023-05-16T16:24:48;13.00;99.90
42803;DHT22;28447;48.682;9.022;2023-05-16T16:27:14;12.70;99.90
42803;DHT22;28447;48.682;9.022;2023-05-16T16:29:41;12.50;99.90
42803;DHT22;28447;48.682;9.022;2023-05-16T16:32:07;12.20;99.90
42803;DHT22;28447;48.682;9.022;2023-05-16T16:34:33;12.10;99.90
42803;DHT22;28447;48.682;9.022;2023-05-16T16:36:58;12.10;99.90
42803;DHT22;28447;48.682;9.022;2023-05-16T16:39:24;11.90;99.90
42803;DHT22;28447;48.682;9.022;2023-05-16T16:41:50;11.80;99.90
42803;DHT22;28447;48.682;9.022;2023-05-16T16:44:18;11.80;99.90
42803;DHT22;28447;48.682;9.022;2023-05-16T16:46:43;11.90;99.90
42803;DHT22;28447;48.682;9.022;2023-05-16T16:49:10;11.90;99.90
42803;DHT22;28447;48.682;9.022;2023-05-16T16:51:35;11.90;99.90
42803;DHT22;28447;48.682;9.022;2023-05-16T16:54:01;11.70;99.90
42803;DHT22;28447;48.682;9.022;2023-05-16T16:56:27;11.90;99.90
42803;DHT22;28447;48.682;9.022;2023-05-16T16:58:54;12.10;99.90
42803;DHT22;28447;48.682;9.022;2023-05-16T17:01:20;12.10;99.90
42803;DHT22;28447;48.682;9.022;2023-05-16T17:03:46;11.90;99.90
42803;DHT22;28447;48.682;9.022;2023-05-16T17:06:12;11.90;99.90
42803;DHT22;28447;48.682;9.022;2023-05-16T17:08:37;11.80;99.90
42803;DHT22;28447;48.682;9.022;2023-05-16T17:11:03;11.90;99.90
42803;DHT22;28447;48.682;9.022;2023-05-16T17:13:32;11.80;99.90
42803;DHT22;28447;48.682;9.022;2023-05-16T17:15:59;11.70;99.90
42803;DHT22;28447;48.682;9.022;2023-05-16T17:18:25;11.60;99.90
42803;DHT22;28447;48.682;9.022;2023-05-16T17:20:51;11.80;99.90
42803;DHT22;28447;48.682;9.022;2023-05-16T17:23:18;11.70;99.90
42803;DHT22;28447;48.682;9.022;2023-05-16T17:25:44;11.70;99.90
42803;DHT22;28447;48.682;9.022;2023-05-16T17:28:09;11.70;99.90
42803;DHT22;28447;48.682;9.022;2023-05-16T17:30:35;11.70;99.90
42803;DHT22;28447;48.682;9.022;2023-05-16T17:33:01;11.70;99.90
42803;DHT22;28447;48.682;9.022;2023-05-16T17:35:26;11.80;99.90
42803;DHT22;28447;48.682;9.022;2023-05-16T17:37:52;11.80;99.90
42803;DHT22;28447;48.682;9.022;2023-05-16T17:40:18;11.70;99.90
42803;DHT22;28447;48.682;9.022;2023-05-16T17:42:44;11.60;99.90
42803;DHT22;28447;48.682;9.022;2023-05-16T17:45:11;11.60;99.90
42803;DHT22;28447;48.682;9.022;2023-05-16T17:47:37;11.80;99.90
42803;DHT22;28447;48.682;9.022;2023-05-16T17:50:04;11.60;99.90
42803;DHT22;28447;48.682;9.022;2023-05-16T17:52:30;11.60;99.90
42803;DHT22;28447;48.682;9.022;2023-05-16T17:54:56;11.60;99.90
42803;DHT22;28447;48.682;9.022;2023-05-16T17:57:22;11.70;99.90
42803;DHT22;28447;48.682;9.022;2023-05-16T17:59:47;11.60;99.90
42803;DHT22;28447;48.682;9.022;2023-05-16T18:02:13;11.60;99.90
42803;DHT22;28447;48.682;9.022;2023-05-16T18:04:40;11.60;99.90
42803;DHT22;28447;48.682;9.022;2023-05-16T18:07:06;11.60;99.90
42803;DHT22;28447;48.682;9.022;2023-05-16T18:09:32;11.60;99.90
42803;DHT22;28447;48.682;9.022;2023-05-16T18:11:58;11.50;99.90
42803;DHT22;28447;48.682;9.022;2023-05-16T18:14:25;11.60;99.90
42803;DHT22;28447;48.682;9.022;2023-05-16T18:16:51;11.50;99.90
42803;DHT22;28447;48.682;9.022;2023-05-16T18:19:17;11.50;99.90
42803;DHT22;28447;48.682;9.022;2023-05-16T18:21:43;11.40;99.90
42803;DHT22;28447;48.682;9.022;2023-05-16T18:24:09;11.30;99.90
42803;DHT22;28447;48.682;9.022;2023-05-16T18:26:37;11.30;99.90
42803;DHT22;28447;48.682;9.022;2023-05-16T18:29:03;11.30;99.90
42803;DHT22;28447;48.682;9.022;2023-05-16T18:31:29;11.20;99.90
42803;DHT22;28447;48.682;9.022;2023-05-16T18:33:58;11.10;99.90
42803;DHT22;28447;48.682;9.022;2023-05-16T18:36:26;11.00;99.90
42803;DHT22;28447;48.682;9.022;2023-05-16T18:38:53;11.00;99.90
42803;DHT22;28447;48.682;9.022;2023-05-16T18:41:18;10.80;99.90
42803;DHT22;28447;48.682;9.022;2023-05-16T18:43:44;10.80;99.90
42803;DHT22;28447;48.682;9.022;2023-05-16T18:46:09;10.90;99.90
42803;DHT22;28447;48.682;9.022;2023-05-16T18:48:35;10.70;99.90
42803;DHT22;28447;48.682;9.022;2023-05-16T18:51:01;10.60;99.90
42803;DHT22;28447;48.682;9.022;2023-05-16T18:53:26;10.50;99.90
42803;DHT22;28447;48.682;9.022;2023-05-16T18:55:52;10.40;99.90
42803;DHT22;28447;48.682;9.022;2023-05-16T18:58:17;10.30;99.90
42803;DHT22;28447;48.682;9.022;2023-05-16T19:00:43;10.30;99.90
42803;DHT22;28447;48.682;9.022;2023-05-16T19:03:09;10.10;99.90
42803;DHT22;28447;48.682;9.022;2023-05-16T19:05:35;10.20;99.90
42803;DHT22;28447;48.682;9.022;2023-05-16T19:08:01;10.10;99.90
42803;DHT22;28447;48.682;9.022;2023-05-16T19:10:27;10.00;99.90
42803;DHT22;28447;48.682;9.022;2023-05-16T19:12:53;9.90;99.90
42803;DHT22;28447;48.682;9.022;2023-05-16T19:15:18;10.00;99.90
42803;DHT22;28447;48.682;9.022;2023-05-16T19:17:44;9.90;99.90
42803;DHT22;28447;48.682;9.022;2023-05-16T19:20:10;9.90;99.90
42803;DHT22;28447;48.682;9.022;2023-05-16T19:22:36;9.90;99.90
42803;DHT22;28447;48.682;9.022;2023-05-16T19:25:02;9.90;99.90
42803;DHT22;28447;48.682;9.022;2023-05-16T19:29:54;9.90;99.90
42803;DHT22;28447;48.682;9.022;2023-05-16T19:32:19;9.80;99.90